Time;durP1;ratioP1;P1;durP2;ratioP2;P2;SDS_P1;SDS_P2;PMS_P1;PMS_P2;Temp;Humidity;BMP_temperature;BMP_pressure;BME280_temperature;BME280_humidity;BME280_pressure;Samples;Min_cycle;Max_cycle;Signal;HPM_P1;HPM_P2
2022/11/19 00:01:25;;;;;;;9.43;5.53;;;1.50;99.90;;;;;;5042812;28;20049;-68
2022/11/19 00:03:51;;;;;;;7.13;4.63;;;1.40;99.90;;;;;;5060567;28;20391;-67
2022/11/19 00:06:23;;;;;;;5.32;4.25;;;1.40;99.90;;;;;;5057629;28;20039;-66
2022/11/19 00:08:48;;;;;;;5.07;3.83;;;1.30;99.90;;;;;;5061833;28;20037;-67
2022/11/19 00:12:53;;;;;;;6.43;4.43;;;1.30;99.90;;;;;;5059818;28;20040;-68
2022/11/19 00:14:06;;;;;;;5.38;4.13;;;1.20;99.90;;;;;;5061499;28;20052;-68
2022/11/19 00:16:32;;;;;;;5.28;3.83;;;1.20;99.90;;;;;;5031497;28;20075;-68
2022/11/19 00:18:58;;;;;;;5.63;3.58;;;1.10;99.90;;;;;;5038927;28;20048;-68
2022/11/19 00:21:24;;;;;;;4.43;3.63;;;1.10;99.90;;;;;;5059022;28;20037;-67
2022/11/19 00:23:53;;;;;;;5.50;4.13;;;1.00;99.90;;;;;;5058042;28;20522;-68
2022/11/19 00:26:19;;;;;;;4.72;3.67;;;1.00;99.90;;;;;;5049536;28;20052;-68
2022/11/19 00:28:45;;;;;;;5.38;4.13;;;1.00;99.90;;;;;;5051025;28;20463;-68
2022/11/19 00:31:12;;;;;;;5.78;4.05;;;0.90;99.90;;;;;;5042794;28;20044;-69
2022/11/19 00:33:39;;;;;;;5.22;3.90;;;0.90;99.90;;;;;;5057153;28;20542;-69
2022/11/19 00:36:07;;;;;;;4.63;3.42;;;0.80;99.90;;;;;;5041505;28;20105;-68
2022/11/19 00:38:33;;;;;;;4.72;4.00;;;0.80;99.90;;;;;;5056732;28;20067;-69
2022/11/19 00:40:59;;;;;;;5.90;4.32;;;0.70;99.90;;;;;;5059338;28;20208;-69
2022/11/19 00:46:10;;;;;;;6.25;4.53;;;0.70;99.90;;;;;;5062996;28;20099;-68
2022/11/19 00:48:37;;;;;;;5.50;3.92;;;0.70;99.90;;;;;;5063219;28;20040;-67
2022/11/19 00:51:04;;;;;;;6.32;4.38;;;0.60;99.90;;;;;;5064661;28;20052;-68
2022/11/19 00:53:30;;;;;;;;;;;0.60;99.90;;;;;;5063434;28;20051;-68
2022/11/19 00:56:00;;;;;;;6.07;4.28;;;0.60;99.90;;;;;;5063034;28;19916;-68
2022/11/19 00:58:26;;;;;;;5.80;4.20;;;0.60;99.90;;;;;;5063051;28;20461;-68
2022/11/19 01:00:52;;;;;;;4.22;3.40;;;0.60;99.90;;;;;;5040665;28;20409;-74
2022/11/19 01:03:17;;;;;;;5.63;4.37;;;0.50;99.90;;;;;;5040633;28;20096;-75
2022/11/19 01:05:43;;;;;;;5.77;4.20;;;0.50;99.90;;;;;;5060032;28;20781;-74
2022/11/19 01:08:09;;;;;;;7.30;4.67;;;0.50;99.90;;;;;;5059524;28;20302;-74
2022/11/19 01:10:35;;;;;;;5.30;4.28;;;0.40;99.90;;;;;;5046750;28;20363;-74
2022/11/19 01:15:49;;;;;;;5.13;4.07;;;0.40;99.90;;;;;;5062302;28;20146;-73
2022/11/19 01:18:17;;;;;;;6.10;4.63;;;0.40;99.90;;;;;;5059296;28;20048;-74
2022/11/19 01:20:43;;;;;;;6.28;4.32;;;0.40;99.90;;;;;;5062853;28;20052;-75
2022/11/19 01:23:10;;;;;;;5.22;4.20;;;0.30;99.90;;;;;;5054111;28;20059;-73
2022/11/19 01:25:35;;;;;;;5.68;4.45;;;0.30;99.90;;;;;;5057409;28;20557;-74
2022/11/19 01:28:02;;;;;;;5.25;3.88;;;0.30;99.90;;;;;;5029930;28;20037;-74
2022/11/19 01:30:28;;;;;;;5.35;4.28;;;0.30;99.90;;;;;;5047563;28;20036;-74
2022/11/19 01:32:54;;;;;;;5.53;4.13;;;0.30;99.90;;;;;;5058285;28;20047;-74
2022/11/19 01:35:19;;;;;;;5.30;4.17;;;0.30;99.90;;;;;;5064035;28;20164;-74
2022/11/19 01:37:45;;;;;;;4.20;3.10;;;0.30;99.90;;;;;;5037129;28;20055;-74
2022/11/19 01:40:11;;;;;;;5.80;4.63;;;0.30;99.90;;;;;;5058298;28;20464;-74
2022/11/19 01:42:49;;;;;;;6.53;4.10;;;0.30;99.90;;;;;;5039385;28;20492;-74
2022/11/19 01:45:41;;;;;;;6.25;4.43;;;0.30;99.90;;;;;;5056541;28;20122;-75
2022/11/19 01:48:07;;;;;;;6.10;4.43;;;0.30;99.90;;;;;;5060811;28;20036;-74
2022/11/19 01:50:38;;;;;;;5.53;3.83;;;0.30;99.90;;;;;;5065504;28;20036;-74
2022/11/19 01:53:07;;;;;;;5.85;4.25;;;0.20;99.90;;;;;;5060350;28;20114;-74
2022/11/19 01:55:33;;;;;;;5.75;4.07;;;0.20;99.90;;;;;;5058856;28;20036;-74
2022/11/19 01:58:01;;;;;;;5.80;4.38;;;0.20;99.90;;;;;;5060218;28;20029;-75
2022/11/19 02:00:28;;;;;;;6.35;4.70;;;0.20;99.90;;;;;;5062652;28;20063;-73
2022/11/19 02:02:54;;;;;;;6.50;4.70;;;0.20;99.90;;;;;;5057546;28;20171;-74
2022/11/19 02:05:20;;;;;;;7.22;4.55;;;0.20;99.90;;;;;;5054620;28;21286;-74
2022/11/19 02:07:55;;;;;;;6.13;4.45;;;0.20;99.90;;;;;;5058211;28;20116;-74
2022/11/19 02:10:50;;;;;;;6.72;4.93;;;0.10;99.90;;;;;;5052463;28;20085;-75
2022/11/19 02:13:26;;;;;;;6.68;5.18;;;0.10;99.90;;;;;;5062285;28;20045;-74
2022/11/19 02:16:07;;;;;;;6.93;5.25;;;0.10;99.90;;;;;;5045146;28;20075;-74
2022/11/19 02:18:47;;;;;;;7.53;5.45;;;0.10;99.90;;;;;;5036395;28;20040;-73
2022/11/19 02:21:42;;;;;;;6.13;4.65;;;0.10;99.90;;;;;;5058284;28;20097;-74
2022/11/19 02:24:24;;;;;;;7.20;4.88;;;0.00;99.90;;;;;;5056624;28;20131;-75
2022/11/19 02:27:18;;;;;;;7.18;5.20;;;0.00;99.90;;;;;;5042535;28;20040;-74
2022/11/19 02:30:15;;;;;;;6.75;4.72;;;-0.10;99.90;;;;;;5060773;28;20051;-74
2022/11/19 02:33:07;;;;;;;7.18;5.15;;;-0.10;99.90;;;;;;5057635;28;20450;-74
2022/11/19 02:35:42;;;;;;;7.30;5.22;;;-0.10;99.90;;;;;;5061375;28;20187;-74
2022/11/19 02:38:15;;;;;;;6.57;4.70;;;-0.20;99.90;;;;;;5054214;28;20044;-74
2022/11/19 02:40:55;;;;;;;6.55;5.10;;;-0.20;99.90;;;;;;5058611;28;20044;-75
2022/11/19 02:43:28;;;;;;;6.88;4.97;;;-0.20;99.90;;;;;;5060609;28;20040;-75
2022/11/19 02:46:14;;;;;;;7.70;5.90;;;-0.30;99.90;;;;;;5052373;28;20043;-74
2022/11/19 02:48:50;;;;;;;7.13;5.43;;;-0.30;99.90;;;;;;5055454;28;20771;-74
2022/11/19 02:51:17;;;;;;;6.97;5.40;;;-0.30;99.90;;;;;;5052263;28;20086;-74
2022/11/19 02:53:45;;;;;;;7.63;5.30;;;-0.40;99.90;;;;;;5021906;28;20127;-74
2022/11/19 02:56:47;;;;;;;7.80;5.60;;;-0.40;99.90;;;;;;5034818;28;20048;-74
2022/11/19 03:04:46;;;;;;;7.75;5.10;;;-0.50;99.90;;;;;;5060251;28;19916;-74
2022/11/19 03:07:16;;;;;;;8.30;5.88;;;-0.50;99.90;;;;;;5057723;28;20441;-74
2022/11/19 03:09:47;;;;;;;10.13;5.78;;;-0.50;99.90;;;;;;5059158;28;20468;-74
2022/11/19 03:12:22;;;;;;;7.60;5.35;;;-0.60;99.90;;;;;;5058468;28;20049;-74
2022/11/19 03:18:09;;;;;;;7.70;5.70;;;-0.60;99.90;;;;;;5056648;28;20044;-73
2022/11/19 03:20:42;;;;;;;7.82;5.57;;;-0.60;99.90;;;;;;5057024;28;20044;-74
2022/11/19 03:23:14;;;;;;;7.43;5.10;;;-0.60;99.90;;;;;;5050746;28;20061;-74
2022/11/19 03:25:45;;;;;;;6.60;4.80;;;-0.60;99.90;;;;;;5055400;28;20044;-74
2022/11/19 03:28:16;;;;;;;7.75;5.13;;;-0.60;99.90;;;;;;5056689;28;20041;-75
2022/11/19 03:30:44;;;;;;;7.88;5.20;;;-0.60;99.90;;;;;;5041736;28;20143;-74
2022/11/19 03:33:16;;;;;;;5.97;4.50;;;-0.60;99.90;;;;;;5053102;28;20086;-74
2022/11/19 03:36:08;;;;;;;7.00;4.88;;;-0.60;99.90;;;;;;5059890;28;20049;-74
2022/11/19 03:38:39;;;;;;;7.63;5.03;;;-0.60;99.90;;;;;;5048992;28;20090;-75
2022/11/19 03:41:07;;;;;;;7.00;5.03;;;-0.60;99.90;;;;;;5060607;28;20069;-75
2022/11/19 03:43:37;;;;;;;6.38;4.78;;;-0.70;99.90;;;;;;5055767;28;20174;-75
2022/11/19 03:46:08;;;;;;;6.60;5.22;;;-0.70;99.90;;;;;;5054921;28;20063;-74
2022/11/19 03:48:35;;;;;;;8.45;5.60;;;-0.70;99.90;;;;;;5052342;28;20045;-74
2022/11/19 03:51:14;;;;;;;7.38;5.47;;;-0.70;99.90;;;;;;5040751;28;20101;-74
2022/11/19 03:53:40;;;;;;;6.88;5.13;;;-0.70;99.90;;;;;;5057277;28;20118;-75
2022/11/19 03:56:09;;;;;;;7.10;5.25;;;-0.70;99.90;;;;;;5059397;28;20036;-75
2022/11/19 03:58:42;;;;;;;7.85;5.10;;;-0.80;99.90;;;;;;5057857;28;20115;-75
2022/11/19 04:01:08;;;;;;;7.05;5.13;;;-0.80;99.90;;;;;;5034401;28;20045;-75
2022/11/19 04:03:33;;;;;;;6.07;4.95;;;-0.80;99.90;;;;;;5039901;28;20052;-75
2022/11/19 04:05:59;;;;;;;7.32;4.88;;;-0.80;99.90;;;;;;5060813;28;20032;-74
2022/11/19 04:08:25;;;;;;;6.80;4.95;;;-0.80;99.90;;;;;;5040481;28;20536;-75
2022/11/19 04:10:50;;;;;;;6.90;4.75;;;-0.80;99.90;;;;;;5058369;28;21156;-75
2022/11/19 04:13:16;;;;;;;7.50;5.20;;;-0.90;99.90;;;;;;5058918;28;20047;-75
2022/11/19 04:15:42;;;;;;;6.28;4.85;;;-0.90;99.90;;;;;;5042435;28;20045;-73
2022/11/19 04:18:07;;;;;;;8.77;5.20;;;-0.90;99.90;;;;;;5058373;28;20519;-76
2022/11/19 04:20:33;;;;;;;7.03;5.45;;;-0.90;99.90;;;;;;5056500;28;20115;-76
2022/11/19 04:22:59;;;;;;;7.47;5.55;;;-0.90;99.90;;;;;;5060851;28;20057;-75
2022/11/19 04:25:25;;;;;;;6.45;4.93;;;-1.00;99.90;;;;;;5031259;28;20048;-75
2022/11/19 04:27:50;;;;;;;8.60;5.65;;;-1.00;99.90;;;;;;5065400;28;20040;-74
2022/11/19 04:30:16;;;;;;;6.72;4.90;;;-1.00;99.90;;;;;;5057851;28;20389;-75
2022/11/19 04:32:42;;;;;;;6.40;4.95;;;-1.10;99.90;;;;;;5045905;28;20040;-74
2022/11/19 04:35:08;;;;;;;7.80;5.57;;;-1.10;99.90;;;;;;5058999;28;20072;-74
2022/11/19 04:37:34;;;;;;;6.68;5.43;;;-1.10;99.90;;;;;;5037930;28;20564;-74
2022/11/19 04:40:00;;;;;;;8.82;5.90;;;-1.10;99.90;;;;;;5060068;28;20229;-74
2022/11/19 04:42:25;;;;;;;7.32;5.15;;;-1.10;99.90;;;;;;5044725;28;20123;-75
2022/11/19 04:44:51;;;;;;;7.85;5.40;;;-1.10;99.90;;;;;;5029039;28;20037;-74
2022/11/19 04:47:17;;;;;;;7.60;5.82;;;-1.10;99.90;;;;;;5063074;28;20079;-74
2022/11/19 04:49:42;;;;;;;6.15;5.10;;;-1.10;99.90;;;;;;5054099;28;21198;-75
2022/11/19 04:52:08;;;;;;;8.07;5.25;;;-1.20;99.90;;;;;;5037659;28;20048;-74
2022/11/19 04:54:34;;;;;;;8.68;6.18;;;-1.20;99.90;;;;;;5061028;28;20060;-74
2022/11/19 04:56:59;;;;;;;7.57;5.50;;;-1.20;99.90;;;;;;5057223;28;20476;-73
2022/11/19 04:59:25;;;;;;;7.38;5.25;;;-1.20;99.90;;;;;;5055441;28;20483;-74
2022/11/19 05:01:51;;;;;;;8.87;6.20;;;-1.20;99.90;;;;;;5058891;28;20044;-75
2022/11/19 05:04:17;;;;;;;8.30;5.70;;;-1.20;99.90;;;;;;5059973;28;20321;-74
2022/11/19 05:06:42;;;;;;;8.43;5.70;;;-1.20;99.90;;;;;;5056565;28;20045;-75
2022/11/19 05:09:08;;;;;;;8.48;6.10;;;-1.20;99.90;;;;;;5060746;28;20093;-74
2022/11/19 05:11:34;;;;;;;7.95;5.50;;;-1.20;99.90;;;;;;5039795;28;20045;-76
2022/11/19 05:13:59;;;;;;;7.85;5.40;;;-1.20;99.90;;;;;;5062765;28;20040;-74
2022/11/19 05:16:25;;;;;;;7.00;5.30;;;-1.20;99.90;;;;;;5040712;28;20056;-74
2022/11/19 05:18:51;;;;;;;7.68;5.18;;;-1.20;99.90;;;;;;5060199;28;20488;-74
2022/11/19 05:21:16;;;;;;;7.88;5.30;;;-1.20;99.90;;;;;;5058644;28;20056;-74
2022/11/19 05:23:42;;;;;;;8.43;6.20;;;-1.30;99.90;;;;;;5041366;28;20055;-75
2022/11/19 05:26:08;;;;;;;7.53;5.07;;;-1.20;99.90;;;;;;5058409;28;20153;-75
2022/11/19 05:28:33;;;;;;;8.40;5.57;;;-1.20;99.90;;;;;;5038038;28;20049;-74
2022/11/19 05:30:59;;;;;;;8.93;6.07;;;-1.20;99.90;;;;;;5066908;28;20373;-75
2022/11/19 05:33:25;;;;;;;7.83;5.70;;;-1.20;99.90;;;;;;5040600;28;20385;-74
2022/11/19 05:35:50;;;;;;;6.60;4.97;;;-1.20;99.90;;;;;;5042444;28;20309;-74
2022/11/19 05:38:16;;;;;;;8.48;5.50;;;-1.20;99.90;;;;;;5058808;28;20319;-74
2022/11/19 05:40:45;;;;;;;7.65;5.95;;;-1.30;99.90;;;;;;5046745;28;20047;-74
2022/11/19 05:43:11;;;;;;;7.30;5.75;;;-1.20;99.90;;;;;;5039553;28;20045;-74
2022/11/19 05:45:37;;;;;;;7.57;5.38;;;-1.30;99.90;;;;;;5059425;28;20044;-74
2022/11/19 05:48:02;;;;;;;8.82;5.70;;;-1.30;99.90;;;;;;5028552;28;20380;-74
2022/11/19 05:50:28;;;;;;;8.63;5.75;;;-1.30;99.90;;;;;;5040290;28;20498;-75
2022/11/19 05:52:54;;;;;;;7.57;5.50;;;-1.30;99.90;;;;;;5056653;28;20049;-75
2022/11/19 05:55:19;;;;;;;6.55;4.57;;;-1.30;99.90;;;;;;5043556;28;20509;-73
2022/11/19 05:57:45;;;;;;;8.30;5.55;;;-1.30;99.90;;;;;;5057210;28;20117;-75
2022/11/19 06:00:11;;;;;;;8.13;5.68;;;-1.30;99.90;;;;;;5038966;28;20052;-74
2022/11/19 06:02:37;;;;;;;8.32;5.75;;;-1.30;99.90;;;;;;5040865;28;20488;-75
2022/11/19 06:05:04;;;;;;;7.13;5.45;;;-1.30;99.90;;;;;;5060099;28;20052;-74
2022/11/19 06:07:29;;;;;;;;;;;-1.40;99.90;;;;;;5035726;28;20436;-73
2022/11/19 06:09:55;;;;;;;8.73;5.45;;;-1.30;99.90;;;;;;5058471;28;19963;-74
2022/11/19 06:12:21;;;;;;;8.38;5.63;;;-1.30;99.90;;;;;;5042295;28;20381;-74
2022/11/19 06:14:46;;;;;;;8.50;5.95;;;-1.30;99.90;;;;;;5036915;28;20056;-74
2022/11/19 06:17:12;;;;;;;7.07;5.47;;;-1.30;99.90;;;;;;5054364;28;20496;-74
2022/11/19 06:19:38;;;;;;;8.90;6.00;;;-1.40;99.90;;;;;;5039217;28;20160;-75
2022/11/19 06:22:04;;;;;;;7.40;5.60;;;-1.40;99.90;;;;;;5038809;28;20045;-74
2022/11/19 06:24:30;;;;;;;8.45;5.72;;;-1.40;99.90;;;;;;5057033;28;20783;-75
2022/11/19 06:26:55;;;;;;;7.57;5.43;;;-1.40;99.90;;;;;;5057065;28;20032;-75
2022/11/19 06:29:21;;;;;;;8.05;5.90;;;-1.40;99.90;;;;;;5062989;28;20087;-74
2022/11/19 06:31:47;;;;;;;7.63;5.72;;;-1.40;99.90;;;;;;5055460;28;20040;-75
2022/11/19 06:34:13;;;;;;;9.13;5.72;;;-1.40;99.90;;;;;;5062097;28;20499;-74
2022/11/19 06:36:39;;;;;;;8.75;6.25;;;-1.40;99.90;;;;;;5059145;28;20363;-74
2022/11/19 06:39:05;;;;;;;7.90;5.30;;;-1.50;99.90;;;;;;5059647;28;20460;-73
2022/11/19 06:41:31;;;;;;;7.10;4.70;;;-1.50;99.90;;;;;;5040655;28;20040;-75
2022/11/19 06:43:57;;;;;;;7.40;5.50;;;-1.50;99.90;;;;;;5055016;28;20487;-75
2022/11/19 06:46:22;;;;;;;6.32;4.35;;;-1.50;99.90;;;;;;5054692;28;20043;-75
2022/11/19 06:48:48;;;;;;;7.45;5.38;;;-1.50;99.90;;;;;;5056666;28;20068;-75
2022/11/19 06:51:13;;;;;;;9.02;5.97;;;-1.50;99.90;;;;;;5056001;28;20052;-75
2022/11/19 06:53:39;;;;;;;9.18;6.03;;;-1.50;99.90;;;;;;5032397;28;20096;-74
2022/11/19 06:56:06;;;;;;;7.07;5.28;;;-1.50;99.90;;;;;;5056221;28;20500;-74
2022/11/19 06:58:32;;;;;;;8.10;5.57;;;-1.50;99.90;;;;;;5039744;28;20032;-75
2022/11/19 07:00:57;;;;;;;8.43;5.80;;;-1.50;99.90;;;;;;5057299;28;20054;-74
2022/11/19 07:03:24;;;;;;;7.72;5.32;;;-1.50;99.90;;;;;;5060538;28;20488;-74
2022/11/19 07:06:02;;;;;;;7.22;5.53;;;-1.50;99.90;;;;;;5055707;28;20463;-75
2022/11/19 07:08:32;;;;;;;9.40;5.57;;;-1.50;99.90;;;;;;5039083;28;20148;-74
2022/11/19 07:10:58;;;;;;;7.57;5.35;;;-1.60;99.90;;;;;;5052427;28;20071;-73
2022/11/19 07:13:23;;;;;;;7.45;5.25;;;-1.60;99.90;;;;;;5056596;28;20082;-75
2022/11/19 07:15:49;;;;;;;7.47;5.32;;;-1.60;99.90;;;;;;5055010;28;20155;-74
2022/11/19 07:18:15;;;;;;;6.82;4.95;;;-1.60;99.90;;;;;;5056432;28;20557;-74
2022/11/19 07:20:40;;;;;;;7.90;5.65;;;-1.60;99.90;;;;;;5035300;28;20048;-74
2022/11/19 07:23:10;;;;;;;7.65;5.60;;;-1.60;99.90;;;;;;5038218;28;20708;-75
2022/11/19 07:25:36;;;;;;;7.35;5.57;;;-1.60;99.90;;;;;;5058883;28;20036;-74
2022/11/19 07:28:02;;;;;;;9.50;5.75;;;-1.50;99.90;;;;;;5056814;28;20033;-75
2022/11/19 07:30:27;;;;;;;8.35;5.85;;;-1.60;99.90;;;;;;5063308;28;20048;-74
2022/11/19 07:32:53;;;;;;;7.32;5.32;;;-1.50;99.90;;;;;;5055884;28;20729;-74
2022/11/19 07:35:19;;;;;;;7.97;5.80;;;-1.60;99.90;;;;;;5061533;28;20049;-75
2022/11/19 07:37:44;;;;;;;8.52;6.13;;;-1.60;99.90;;;;;;5039196;28;20403;-73
2022/11/19 07:40:13;;;;;;;9.15;6.80;;;-1.50;99.90;;;;;;5054927;28;20052;-75
2022/11/19 07:42:48;;;;;;;7.60;6.13;;;-1.50;99.90;;;;;;5057897;28;20045;-74
2022/11/19 07:45:14;;;;;;;9.00;6.00;;;-1.50;99.90;;;;;;5051788;28;20124;-74
2022/11/19 07:47:39;;;;;;;11.70;6.53;;;-1.50;99.90;;;;;;5055158;28;20483;-74
2022/11/19 07:50:05;;;;;;;9.32;6.35;;;-1.50;99.90;;;;;;5055567;28;20047;-74
2022/11/19 07:52:31;;;;;;;8.75;5.85;;;-1.40;99.90;;;;;;5052452;28;20159;-74
2022/11/19 07:54:57;;;;;;;9.30;6.22;;;-1.40;99.90;;;;;;5061958;28;20067;-74
2022/11/19 07:57:22;;;;;;;8.20;6.32;;;-1.40;99.90;;;;;;5057241;28;20131;-74
2022/11/19 07:59:48;;;;;;;8.82;6.32;;;-1.30;99.90;;;;;;5063045;28;20090;-73
2022/11/19 08:02:14;;;;;;;8.47;6.37;;;-1.30;99.90;;;;;;5066115;28;20052;-74
2022/11/19 08:04:40;;;;;;;9.68;6.70;;;-1.30;99.90;;;;;;5058830;28;20298;-74
2022/11/19 08:07:06;;;;;;;9.45;6.50;;;-1.20;99.90;;;;;;5060221;28;20039;-74
2022/11/19 08:09:32;;;;;;;8.75;6.10;;;-1.20;99.90;;;;;;5041984;28;20067;-75
2022/11/19 08:11:58;;;;;;;;;;;-1.20;99.90;;;;;;5058967;28;20507;-74
2022/11/19 08:14:24;;;;;;;9.18;6.30;;;-1.10;99.90;;;;;;5036741;28;19923;-75
2022/11/19 08:19:34;;;;;;;8.88;6.32;;;-1.10;99.90;;;;;;5054745;28;20052;-68
2022/11/19 08:22:00;;;;;;;8.93;6.85;;;-1.00;99.90;;;;;;5063421;28;20040;-67
2022/11/19 08:24:26;;;;;;;8.98;6.03;;;-1.00;99.90;;;;;;5062325;28;20098;-68
2022/11/19 08:26:51;;;;;;;8.15;5.78;;;-0.90;99.90;;;;;;5060901;28;20040;-67
2022/11/19 08:29:20;;;;;;;8.82;5.88;;;-1.00;99.90;;;;;;5057158;28;20040;-68
2022/11/19 08:31:47;;;;;;;8.35;6.40;;;-0.90;99.90;;;;;;5054401;28;20086;-68
2022/11/19 08:34:13;;;;;;;9.43;6.75;;;-0.90;99.90;;;;;;5056179;28;20189;-67
2022/11/19 08:36:39;;;;;;;7.97;6.28;;;-0.90;99.90;;;;;;5053506;28;20488;-68
2022/11/19 08:39:05;;;;;;;8.15;6.30;;;-0.80;99.90;;;;;;5060787;28;20033;-67
2022/11/19 08:44:16;;;;;;;9.60;6.65;;;-0.70;99.90;;;;;;5061969;28;20408;-74
2022/11/19 08:46:42;;;;;;;9.13;6.45;;;-0.70;99.90;;;;;;5053972;28;20208;-74
2022/11/19 08:49:08;;;;;;;9.27;6.88;;;-0.70;99.90;;;;;;5059693;28;20082;-74
2022/11/19 08:51:34;;;;;;;8.68;6.88;;;-0.60;99.90;;;;;;5058396;28;20048;-68
2022/11/19 08:54:00;;;;;;;8.55;6.18;;;-0.60;99.90;;;;;;5057335;28;20163;-68
2022/11/19 08:56:26;;;;;;;7.85;6.05;;;-0.60;99.90;;;;;;5039370;28;20051;-68
2022/11/19 08:58:53;;;;;;;7.90;6.05;;;-0.50;99.90;;;;;;5058682;28;20037;-69
2022/11/19 09:01:19;;;;;;;7.50;5.50;;;-0.50;99.90;;;;;;5043734;28;20181;-68
2022/11/19 09:03:45;;;;;;;9.05;6.78;;;-0.50;99.90;;;;;;5061350;28;21036;-67
2022/11/19 09:06:12;;;;;;;8.52;6.60;;;-0.40;99.90;;;;;;5043747;28;20037;-67
2022/11/19 09:08:38;;;;;;;9.75;7.22;;;-0.30;99.90;;;;;;5059457;28;20051;-67
2022/11/19 09:11:09;;;;;;;9.40;7.22;;;-0.30;99.90;;;;;;5054398;28;20480;-69
2022/11/19 09:13:35;;;;;;;8.02;6.00;;;-0.30;99.90;;;;;;5057387;28;20040;-69
2022/11/19 09:16:02;;;;;;;9.93;6.05;;;-0.30;99.90;;;;;;5058770;28;20059;-68
2022/11/19 09:18:28;;;;;;;8.27;6.38;;;-0.20;99.90;;;;;;5064764;28;20516;-68
2022/11/19 09:20:55;;;;;;;8.32;6.50;;;-0.20;99.90;;;;;;5062643;28;20055;-68
2022/11/19 09:23:22;;;;;;;10.88;6.90;;;-0.10;99.90;;;;;;5062592;28;20163;-68
2022/11/19 09:25:56;;;;;;;9.85;6.28;;;-0.10;99.90;;;;;;5054955;28;20052;-68
2022/11/19 09:28:22;;;;;;;8.68;6.43;;;-0.10;99.90;;;;;;5046798;28;20479;-69
2022/11/19 09:30:56;;;;;;;9.88;6.70;;;0.00;99.90;;;;;;5030001;28;20039;-68
2022/11/19 09:33:22;;;;;;;8.93;6.35;;;0.00;99.90;;;;;;5053396;28;20060;-68
2022/11/19 09:35:48;;;;;;;9.55;7.10;;;0.10;99.90;;;;;;5062779;28;20047;-69
2022/11/19 09:38:13;;;;;;;9.60;7.13;;;0.10;99.90;;;;;;5047819;28;20045;-69
2022/11/19 09:40:48;;;;;;;8.35;6.15;;;0.20;99.90;;;;;;5063190;28;20076;-69
2022/11/19 09:43:44;;;;;;;8.68;6.53;;;0.20;99.90;;;;;;5062981;28;20048;-68
2022/11/19 09:46:37;;;;;;;8.13;6.30;;;0.30;99.90;;;;;;5057752;28;20061;-70
2022/11/19 09:49:09;;;;;;;9.32;6.90;;;0.30;99.90;;;;;;5038453;28;20040;-69
2022/11/19 09:51:38;;;;;;;9.65;6.90;;;0.40;99.90;;;;;;5065771;28;20395;-69
2022/11/19 09:54:14;;;;;;;8.93;6.85;;;0.40;99.90;;;;;;5061250;28;20376;-69
2022/11/19 09:56:45;;;;;;;8.95;6.55;;;0.50;99.90;;;;;;5061650;28;20070;-68
2022/11/19 09:59:35;;;;;;;9.25;6.65;;;0.50;99.90;;;;;;5063850;28;21634;-69
2022/11/19 10:02:02;;;;;;;8.25;6.18;;;0.50;99.90;;;;;;5057880;28;20047;-68
2022/11/19 10:04:32;;;;;;;8.30;6.50;;;0.60;99.90;;;;;;5042272;28;20051;-69
2022/11/19 10:07:06;;;;;;;8.38;6.43;;;0.60;99.90;;;;;;5053724;28;20194;-68
2022/11/19 10:09:50;;;;;;;7.78;5.57;;;0.70;99.90;;;;;;5061356;28;20061;-68
2022/11/19 10:12:45;;;;;;;7.25;5.60;;;0.70;99.90;;;;;;5051747;28;20525;-68
2022/11/19 10:15:37;;;;;;;8.73;6.65;;;0.80;99.90;;;;;;5055205;28;20048;-69
2022/11/19 10:18:25;;;;;;;8.32;6.05;;;0.90;99.90;;;;;;5062766;28;20032;-69
2022/11/19 10:21:13;;;;;;;8.13;6.15;;;1.00;99.90;;;;;;5041338;28;20044;-69
2022/11/19 10:23:52;;;;;;;7.68;6.25;;;1.20;99.90;;;;;;5060542;28;20060;-68
2022/11/19 10:26:25;;;;;;;6.80;5.43;;;1.30;99.90;;;;;;5061265;28;20080;-68
2022/11/19 10:28:56;;;;;;;6.05;5.07;;;1.50;99.90;;;;;;5063208;28;20124;-69
2022/11/19 10:31:34;;;;;;;7.30;5.57;;;1.70;99.90;;;;;;5058511;28;20068;-69
2022/11/19 10:34:10;;;;;;;5.90;4.90;;;2.00;99.90;;;;;;5062213;28;20040;-68
2022/11/19 10:36:44;;;;;;;7.50;5.75;;;2.30;99.90;;;;;;5061752;28;20044;-69
2022/11/19 10:39:19;;;;;;;7.47;5.47;;;2.50;99.90;;;;;;5063650;28;20048;-69
2022/11/19 10:41:53;;;;;;;7.72;6.10;;;2.80;99.90;;;;;;5058051;28;20041;-75
2022/11/19 10:44:42;;;;;;;7.40;5.85;;;2.90;99.90;;;;;;5058323;28;20068;-75
2022/11/19 10:47:24;;;;;;;6.57;5.45;;;3.10;99.90;;;;;;5042031;28;20033;-75
2022/11/19 10:49:55;;;;;;;5.88;4.57;;;3.40;99.90;;;;;;5056419;28;20115;-73
2022/11/19 10:52:28;;;;;;;6.53;5.07;;;3.80;99.90;;;;;;5028427;28;20856;-74
2022/11/19 10:55:24;;;;;;;6.55;5.45;;;4.00;99.90;;;;;;5058685;28;20049;-75
2022/11/19 10:57:59;;;;;;;7.47;6.10;;;4.20;99.90;;;;;;5032290;28;20060;-75
2022/11/19 11:00:25;;;;;;;7.72;5.35;;;4.50;99.90;;;;;;5059473;28;20106;-74
2022/11/19 11:03:01;;;;;;;7.43;5.22;;;4.50;99.90;;;;;;5029477;28;20037;-74
2022/11/19 11:05:28;;;;;;;6.35;5.10;;;4.70;99.90;;;;;;5061563;28;20048;-75
2022/11/19 11:07:56;;;;;;;6.20;4.60;;;4.70;99.90;;;;;;5062965;28;20040;-75
2022/11/19 11:10:41;;;;;;;6.30;4.82;;;4.80;99.90;;;;;;5047887;28;20078;-74
2022/11/19 11:16:08;;;;;;;4.57;3.88;;;5.00;99.90;;;;;;5054860;28;20090;-74
2022/11/19 11:18:39;;;;;;;4.85;4.10;;;4.90;99.90;;;;;;5061961;28;20387;-74
2022/11/19 11:21:25;;;;;;;5.10;3.80;;;5.10;99.90;;;;;;5054523;28;20053;-74
2022/11/19 11:23:54;;;;;;;6.53;4.60;;;5.10;99.90;;;;;;5056451;28;20052;-74
2022/11/19 11:26:26;;;;;;;4.85;3.90;;;5.20;99.90;;;;;;5057041;28;20040;-74
2022/11/19 11:28:54;;;;;;;4.80;3.80;;;5.40;99.90;;;;;;5060825;28;20101;-75
2022/11/19 11:31:46;;;;;;;5.40;3.92;;;5.40;99.90;;;;;;5039634;28;20399;-75
2022/11/19 11:34:34;;;;;;;4.50;3.83;;;5.30;99.90;;;;;;5042492;28;20060;-75
2022/11/19 11:37:02;;;;;;;5.30;3.90;;;5.40;99.90;;;;;;5037518;28;20567;-75
2022/11/19 11:39:36;;;;;;;4.53;3.40;;;5.40;99.90;;;;;;5058648;28;20052;-74
2022/11/19 11:42:03;;;;;;;4.88;3.90;;;5.40;99.90;;;;;;5058128;28;20055;-75
2022/11/19 11:44:32;;;;;;;6.35;3.90;;;5.40;99.90;;;;;;5040713;28;20092;-76
2022/11/19 11:47:03;;;;;;;5.53;4.00;;;5.40;99.90;;;;;;5053583;28;20033;-75
2022/11/19 11:49:44;;;;;;;4.95;4.20;;;5.50;99.90;;;;;;5060087;28;20387;-74
2022/11/19 11:52:10;;;;;;;5.43;3.88;;;5.30;99.90;;;;;;5059262;28;20179;-75
2022/11/19 11:54:52;;;;;;;4.57;3.77;;;5.30;99.90;;;;;;5061684;28;20108;-75
2022/11/19 11:57:26;;;;;;;4.43;3.60;;;5.30;99.90;;;;;;5062743;28;20330;-75
2022/11/19 11:59:52;;;;;;;4.30;3.45;;;5.40;99.90;;;;;;5059670;28;20071;-75
2022/11/19 12:02:29;;;;;;;4.35;3.70;;;5.40;99.90;;;;;;5059347;28;20040;-75
2022/11/19 12:04:55;;;;;;;;;;;5.50;99.90;;;;;;5055017;28;20511;-75
2022/11/19 12:07:48;;;;;;;5.30;3.65;;;5.50;99.90;;;;;;5058100;28;20320;-73
2022/11/19 12:10:23;;;;;;;4.97;3.80;;;5.40;99.90;;;;;;5058635;28;20052;-74
2022/11/19 12:12:54;;;;;;;4.55;3.22;;;5.40;99.90;;;;;;5052917;28;20526;-73
2022/11/19 12:15:42;;;;;;;4.25;3.20;;;5.60;99.90;;;;;;5050515;28;20491;-73
2022/11/19 12:18:30;;;;;;;3.47;2.97;;;5.70;99.90;;;;;;5053598;28;20384;-73
2022/11/19 12:21:09;;;;;;;5.55;3.35;;;5.80;99.90;;;;;;5038672;28;20049;-73
2022/11/19 12:24:00;;;;;;;4.35;3.30;;;5.80;99.90;;;;;;5041762;28;20633;-73
2022/11/19 12:27:12;;;;;;;4.13;3.00;;;5.80;99.90;;;;;;5054148;28;20098;-73
2022/11/19 12:29:52;;;;;;;4.30;2.97;;;5.80;99.90;;;;;;5006842;28;20128;-73
2022/11/19 12:32:52;;;;;;;4.10;3.08;;;5.80;99.90;;;;;;5052038;28;20045;-74
2022/11/19 12:36:05;;;;;;;4.35;3.10;;;5.70;99.90;;;;;;5041302;28;20048;-73
2022/11/19 12:38:39;;;;;;;3.92;3.08;;;5.80;99.90;;;;;;4977632;28;20045;-73
2022/11/19 12:41:43;;;;;;;3.05;2.63;;;5.90;99.90;;;;;;4980236;28;20053;-74
2022/11/19 12:44:16;;;;;;;3.60;3.28;;;6.10;99.30;;;;;;4944091;28;20061;-74
2022/11/19 12:46:49;;;;;;;3.63;2.92;;;6.20;99.90;;;;;;5052680;28;20033;-74
2022/11/19 12:49:52;;;;;;;4.03;3.40;;;6.40;99.90;;;;;;5062289;28;20140;-74
2022/11/19 12:52:43;;;;;;;5.47;3.78;;;6.30;99.90;;;;;;5062539;28;20087;-74
2022/11/19 12:55:32;;;;;;;5.65;3.78;;;6.40;99.90;;;;;;5057618;28;20144;-75
2022/11/19 12:58:35;;;;;;;4.88;3.70;;;6.40;99.90;;;;;;5056097;28;20044;-73
2022/11/19 13:01:11;;;;;;;5.57;4.53;;;6.40;99.90;;;;;;5058640;28;20494;-74
2022/11/19 13:03:48;;;;;;;5.65;4.68;;;6.30;99.90;;;;;;5038219;28;20048;-74
2022/11/19 13:06:26;;;;;;;5.22;4.07;;;6.30;99.90;;;;;;5054197;28;20631;-74
2022/11/19 13:09:01;;;;;;;5.68;3.92;;;6.20;99.90;;;;;;5064700;28;20037;-74
2022/11/19 13:11:37;;;;;;;4.40;3.75;;;6.20;99.90;;;;;;5061202;28;20045;-73
2022/11/19 13:14:37;;;;;;;6.10;4.45;;;6.20;99.90;;;;;;5074431;28;20487;-74
2022/11/19 13:17:04;;;;;;;4.60;3.67;;;6.10;99.90;;;;;;5053118;28;20055;-74
2022/11/19 13:19:36;;;;;;;5.47;3.83;;;6.20;99.90;;;;;;5063197;28;20048;-74
2022/11/19 13:22:22;;;;;;;5.25;3.53;;;6.20;99.90;;;;;;5059563;28;20055;-74
2022/11/19 13:25:01;;;;;;;4.82;3.70;;;6.20;99.90;;;;;;5054618;28;20120;-73
2022/11/19 13:27:28;;;;;;;3.92;3.47;;;6.20;99.90;;;;;;5062139;28;20036;-74
2022/11/19 13:30:02;;;;;;;4.82;3.72;;;6.20;99.90;;;;;;5040156;28;20369;-73
2022/11/19 13:32:37;;;;;;;4.22;3.30;;;6.20;99.90;;;;;;5059424;28;20471;-74
2022/11/19 13:35:06;;;;;;;3.63;3.03;;;6.10;99.90;;;;;;5053151;28;20060;-74
2022/11/19 13:37:53;;;;;;;3.53;2.88;;;6.00;99.30;;;;;;5054341;28;20044;-74